createdAt,value
2023-04-28T00:00:09.041Z,2.95
2023-04-28T00:02:57.190Z,2.88
2023-04-28T00:05:25.730Z,2.84
2023-04-28T00:07:55.239Z,2.81
2023-04-28T00:10:24.309Z,2.78
2023-04-28T00:12:52.152Z,2.72
2023-04-28T00:15:21.299Z,2.67
2023-04-28T00:17:49.618Z,2.66
2023-04-28T00:20:19.267Z,2.62
2023-04-28T00:22:47.306Z,2.59
2023-04-28T00:25:15.361Z,2.57
2023-04-28T00:27:44.602Z,2.53
2023-04-28T00:30:12.933Z,2.47
2023-04-28T00:32:41.432Z,2.42
2023-04-28T00:35:11.311Z,2.37
2023-04-28T00:37:39.789Z,2.36
2023-04-28T00:40:08.904Z,2.34
2023-04-28T00:42:37.650Z,2.33
2023-04-28T00:45:07.425Z,2.31
2023-04-28T00:47:37.564Z,2.26
2023-04-28T00:50:06.701Z,2.24
2023-04-28T00:52:35.217Z,2.20
2023-04-28T00:55:05.197Z,2.17
2023-04-28T00:57:33.022Z,2.15
2023-04-28T01:00:01.136Z,2.12
2023-04-28T01:02:32.052Z,2.10
2023-04-28T01:05:02.315Z,2.07
2023-04-28T01:07:30.264Z,2.03
2023-04-28T01:09:58.748Z,1.98
2023-04-28T01:12:26.591Z,1.94
2023-04-28T01:14:54.742Z,1.91
2023-04-28T01:17:22.992Z,1.88
2023-04-28T01:19:53.135Z,1.87
2023-04-28T01:22:20.981Z,1.84
2023-04-28T01:24:50.639Z,1.81
2023-04-28T01:27:18.492Z,1.78
2023-04-28T01:29:46.431Z,1.78
2023-04-28T01:32:14.207Z,1.76
2023-04-28T01:34:42.132Z,1.71
2023-04-28T01:37:09.946Z,1.69
2023-04-28T01:39:37.812Z,1.68
2023-04-28T01:42:06.596Z,1.65
2023-04-28T01:44:35.597Z,1.60
2023-04-28T01:47:03.603Z,1.54
2023-04-28T01:49:31.638Z,1.52
2023-04-28T01:52:00.140Z,1.50
2023-04-28T01:54:28.366Z,1.47
2023-04-28T01:56:56.147Z,1.40
2023-04-28T01:59:23.970Z,1.35
2023-04-28T02:01:52.971Z,1.33
2023-04-28T02:04:20.853Z,1.32
2023-04-28T02:06:50.126Z,1.32
2023-04-28T02:09:19.946Z,1.29
2023-04-28T02:11:47.930Z,1.26
2023-04-28T02:14:17.730Z,1.24
2023-04-28T02:16:46.196Z,1.21
2023-04-28T02:19:15.876Z,1.19
2023-04-28T02:21:43.905Z,1.18
2023-04-28T02:24:12.291Z,1.15
2023-04-28T02:26:40.364Z,1.11
2023-04-28T02:29:08.393Z,1.05
2023-04-28T02:31:36.298Z,0.99
2023-04-28T02:34:07.345Z,1.18
2023-04-28T02:36:35.326Z,2.83
2023-04-28T02:39:03.444Z,4.79
2023-04-28T02:41:32.277Z,6.30
2023-04-28T02:44:01.113Z,6.79
2023-04-28T02:46:28.948Z,5.90
2023-04-28T02:48:56.949Z,4.82
2023-04-28T02:51:25.170Z,4.04
2023-04-28T02:53:53.073Z,3.50
2023-04-28T02:56:21.334Z,3.09
2023-04-28T02:58:49.185Z,2.75
2023-04-28T03:01:17.892Z,2.47
2023-04-28T03:03:46.584Z,2.16
2023-04-28T03:06:16.442Z,1.88
2023-04-28T03:08:44.401Z,1.65
2023-04-28T03:11:13.459Z,1.44
2023-04-28T03:13:43.772Z,1.27
2023-04-28T03:16:11.575Z,1.13
2023-04-28T03:18:42.100Z,1.01
2023-04-28T03:21:09.911Z,0.92
2023-04-28T03:23:37.720Z,0.84
2023-04-28T03:26:05.841Z,0.77
2023-04-28T03:28:33.741Z,0.71
2023-04-28T03:31:02.757Z,0.64
2023-04-28T03:33:30.804Z,0.58
2023-04-28T03:35:58.772Z,0.52
2023-04-28T03:38:27.012Z,0.44
2023-04-28T03:40:54.838Z,0.38
2023-04-28T03:43:23.184Z,0.32
2023-04-28T03:45:51.315Z,0.25
2023-04-28T03:48:21.444Z,0.18
2023-04-28T03:50:49.399Z,0.12
2023-04-28T03:53:17.378Z,0.48
2023-04-28T03:55:45.788Z,2.65
2023-04-28T03:58:14.167Z,4.85
2023-04-28T04:00:43.487Z,6.37
2023-04-28T04:03:12.417Z,6.90
2023-04-28T04:05:41.586Z,5.72
2023-04-28T04:08:10.432Z,4.44
2023-04-28T04:10:38.805Z,3.55
2023-04-28T04:13:09.363Z,2.95
2023-04-28T04:15:37.830Z,2.43
2023-04-28T04:18:06.624Z,2.02
2023-04-28T04:20:37.177Z,1.69
2023-04-28T04:23:05.001Z,1.42
2023-04-28T04:25:35.232Z,1.22
2023-04-28T04:28:03.664Z,1.06
2023-04-28T04:30:32.227Z,0.95
2023-04-28T04:33:02.390Z,0.89
2023-04-28T04:35:30.486Z,0.84
2023-04-28T04:37:58.818Z,1.44
2023-04-28T04:40:26.813Z,3.55
2023-04-28T04:42:54.775Z,5.17
2023-04-28T04:45:22.616Z,4.88
2023-04-28T04:47:50.863Z,3.91
2023-04-28T04:50:20.016Z,3.17
2023-04-28T04:52:50.825Z,2.65
2023-04-28T04:55:19.194Z,2.29
2023-04-28T04:57:47.089Z,2.01
2023-04-28T05:00:16.963Z,1.80
2023-04-28T05:02:46.847Z,1.65
2023-04-28T05:05:21.137Z,1.53
2023-04-28T05:07:50.194Z,1.45
2023-04-28T05:10:18.053Z,1.42
2023-04-28T05:12:48.823Z,1.41
2023-04-28T05:15:17.290Z,1.41
2023-04-28T05:17:45.571Z,1.43
2023-04-28T05:20:13.713Z,1.44
2023-04-28T05:22:42.711Z,1.46
2023-04-28T05:25:10.681Z,1.49
2023-04-28T05:27:39.938Z,1.54
2023-04-28T05:30:10.540Z,1.60
2023-04-28T05:32:39.236Z,1.65
2023-04-28T05:35:07.914Z,1.71
2023-04-28T05:37:38.295Z,1.73
2023-04-28T05:40:08.176Z,1.80
2023-04-28T05:42:36.267Z,1.81
2023-04-28T05:45:06.194Z,1.79
2023-04-28T05:47:36.702Z,1.81
2023-04-28T05:50:05.656Z,1.86
2023-04-28T05:52:33.934Z,1.89
2023-04-28T05:55:05.440Z,1.92
2023-04-28T05:57:42.097Z,1.97
2023-04-28T06:00:18.517Z,2.02
2023-04-28T06:02:47.091Z,2.08
2023-04-28T06:05:15.524Z,2.17
2023-04-28T06:07:44.199Z,2.24
2023-04-28T06:10:13.844Z,2.30
2023-04-28T06:12:41.721Z,2.34
2023-04-28T06:15:10.023Z,2.39
2023-04-28T06:17:40.553Z,2.46
2023-04-28T06:20:11.242Z,2.54
2023-04-28T06:22:39.369Z,2.64
2023-04-28T06:25:08.591Z,2.71
2023-04-28T06:27:36.382Z,2.77
2023-04-28T06:30:08.298Z,2.83
2023-04-28T06:32:36.602Z,2.89
2023-04-28T06:35:10.649Z,2.92
2023-04-28T06:37:42.125Z,2.97
2023-04-28T06:40:12.311Z,3.02
2023-04-28T06:42:40.133Z,3.04
2023-04-28T06:45:09.181Z,3.10
2023-04-28T06:47:37.664Z,3.16
2023-04-28T06:50:06.490Z,3.22
2023-04-28T06:52:39.339Z,3.30
2023-04-28T06:55:09.687Z,3.37
2023-04-28T06:57:42.506Z,3.47
2023-04-28T07:00:12.010Z,3.58
2023-04-28T07:02:40.046Z,3.71
2023-04-28T07:05:16.576Z,3.84
2023-04-28T07:07:48.132Z,3.98
2023-04-28T07:10:16.309Z,4.11
2023-04-28T07:12:45.781Z,4.22
2023-04-28T07:15:15.613Z,4.35
2023-04-28T07:17:43.720Z,4.48
2023-04-28T07:20:12.242Z,4.58
2023-04-28T07:22:41.522Z,4.70
2023-04-28T07:25:13.465Z,4.83
2023-04-28T07:27:41.869Z,4.95
2023-04-28T07:30:26.056Z,5.08
2023-04-28T07:32:57.422Z,5.21
2023-04-28T07:35:25.746Z,5.26
2023-04-28T07:37:54.368Z,5.30
2023-04-28T07:40:24.468Z,5.35
2023-04-28T07:42:52.633Z,5.41
2023-04-28T07:45:20.764Z,5.47
2023-04-28T07:47:48.901Z,5.58
2023-04-28T07:50:17.508Z,5.67
2023-04-28T07:52:45.322Z,5.78
2023-04-28T07:55:13.194Z,5.90
2023-04-28T07:57:42.486Z,6.00
2023-04-28T08:00:12.069Z,6.08
2023-04-28T08:02:40.691Z,6.18
2023-04-28T08:05:10.298Z,6.28
2023-04-28T08:07:38.752Z,6.38
2023-04-28T08:10:13.212Z,6.45
2023-04-28T08:12:41.677Z,6.55
2023-04-28T08:15:10.868Z,6.65
2023-04-28T08:17:39.216Z,6.76
2023-04-28T08:20:08.596Z,6.85
2023-04-28T08:22:37.415Z,6.92
2023-04-28T08:25:07.592Z,7.02
2023-04-28T08:27:38.187Z,7.12
2023-04-28T08:30:10.967Z,7.23
2023-04-28T08:32:39.136Z,7.31
2023-04-28T08:35:08.017Z,7.38
2023-04-28T08:37:36.450Z,7.46
2023-04-28T08:40:09.994Z,7.55
2023-04-28T08:42:38.739Z,7.69
2023-04-28T08:45:07.886Z,7.84
2023-04-28T08:47:46.310Z,7.98
2023-04-28T08:50:23.619Z,8.10
2023-04-28T08:52:53.672Z,8.23
2023-04-28T08:55:23.970Z,8.32
2023-04-28T08:57:52.756Z,8.43
2023-04-28T09:00:21.608Z,8.56
2023-04-28T09:02:50.239Z,8.70
2023-04-28T09:05:22.135Z,8.87
2023-04-28T09:07:52.321Z,9.02
2023-04-28T09:10:24.272Z,9.17
2023-04-28T09:12:56.021Z,9.31
2023-04-28T09:15:42.051Z,9.44
2023-04-28T09:18:15.847Z,9.53
2023-04-28T09:20:45.178Z,9.60
2023-04-28T09:23:22.450Z,9.67
2023-04-28T09:26:08.930Z,9.72
2023-04-28T09:28:38.928Z,9.78
2023-04-28T09:31:06.783Z,9.87
2023-04-28T09:33:34.983Z,9.95
2023-04-28T09:36:03.532Z,10.01
2023-04-28T09:38:31.441Z,10.07
2023-04-28T09:41:03.827Z,10.15
2023-04-28T09:43:34.795Z,10.24
2023-04-28T09:46:06.479Z,10.35
2023-04-28T09:48:38.785Z,10.47
2023-04-28T09:51:09.489Z,10.52
2023-04-28T09:53:37.913Z,10.58
2023-04-28T09:56:07.430Z,10.67
2023-04-28T09:58:41.272Z,10.75
2023-04-28T10:01:13.591Z,10.83
2023-04-28T10:03:44.306Z,10.88
2023-04-28T10:06:12.247Z,10.95
2023-04-28T10:08:41.440Z,11.00
2023-04-28T10:11:10.240Z,11.04
2023-04-28T10:13:39.183Z,11.07
2023-04-28T10:16:08.634Z,11.16
2023-04-28T10:18:39.165Z,11.30
2023-04-28T10:21:11.757Z,11.47
2023-04-28T10:24:03.600Z,11.67
2023-04-28T10:27:09.230Z,11.88
2023-04-28T10:29:37.862Z,12.16
2023-04-28T10:32:29.341Z,12.31
2023-04-28T10:35:28.547Z,12.45
2023-04-28T10:38:10.829Z,12.61
2023-04-28T10:40:47.099Z,12.72
2023-04-28T10:43:35.070Z,12.80
2023-04-28T10:46:06.589Z,12.89
2023-04-28T10:48:46.650Z,12.97
2023-04-28T10:51:14.698Z,12.95
2023-04-28T10:53:48.468Z,12.98
2023-04-28T10:56:25.582Z,13.09
2023-04-28T10:58:57.974Z,13.22
2023-04-28T11:01:37.934Z,13.39
2023-04-28T11:04:18.082Z,13.61
2023-04-28T11:07:14.735Z,13.80
2023-04-28T11:09:43.123Z,13.96
2023-04-28T11:12:12.657Z,14.05
2023-04-28T11:14:41.531Z,13.96
2023-04-28T11:17:13.866Z,13.87
2023-04-28T11:19:48.857Z,13.81
2023-04-28T11:22:20.821Z,13.79
2023-04-28T11:25:03.718Z,13.78
2023-04-28T11:27:34.705Z,13.80
2023-04-28T11:30:05.261Z,13.85
2023-04-28T11:32:37.184Z,13.93
2023-04-28T11:35:12.351Z,13.99
2023-04-28T11:37:42.254Z,13.99
2023-04-28T11:40:16.020Z,13.99
2023-04-28T11:42:50.181Z,13.99
2023-04-28T11:45:18.967Z,14.02
2023-04-28T11:47:54.263Z,14.06
2023-04-28T11:50:37.672Z,14.13
2023-04-28T11:53:06.037Z,14.24
2023-04-28T11:55:36.945Z,14.33
2023-04-28T11:58:24.296Z,14.39
2023-04-28T12:01:15.522Z,14.41
2023-04-28T12:03:49.841Z,14.39
2023-04-28T12:06:21.400Z,14.38
2023-04-28T12:08:50.030Z,14.36
2023-04-28T12:11:20.120Z,14.32
2023-04-28T12:14:06.870Z,14.36
2023-04-28T12:16:44.425Z,14.41
2023-04-28T12:19:15.354Z,14.46
2023-04-28T12:21:44.479Z,14.45
2023-04-28T12:24:21.751Z,14.43
2023-04-28T12:26:49.956Z,14.39
2023-04-28T12:29:39.933Z,14.38
2023-04-28T12:32:14.239Z,14.33
2023-04-28T12:34:46.080Z,14.25
2023-04-28T12:37:17.522Z,14.14
2023-04-28T12:39:45.872Z,14.04
2023-04-28T12:42:14.770Z,13.96
2023-04-28T12:44:42.567Z,13.88
2023-04-28T12:47:12.372Z,13.81
2023-04-28T12:49:40.309Z,13.76
2023-04-28T12:52:08.583Z,13.62
2023-04-28T12:54:37.268Z,13.47
2023-04-28T12:57:07.071Z,13.37
2023-04-28T12:59:38.662Z,13.29
2023-04-28T13:02:11.045Z,13.25
2023-04-28T13:04:41.138Z,13.23
2023-04-28T13:07:23.143Z,13.17
2023-04-28T13:09:51.396Z,13.09
2023-04-28T13:12:19.265Z,13.03
2023-04-28T13:14:47.279Z,13.00
2023-04-28T13:17:16.002Z,13.01
2023-04-28T13:19:44.603Z,13.05
2023-04-28T13:22:13.653Z,13.07
2023-04-28T13:24:45.369Z,13.04
2023-04-28T13:27:15.238Z,13.02
2023-04-28T13:29:43.041Z,13.01
2023-04-28T13:32:13.308Z,12.98
2023-04-28T13:34:43.774Z,12.94
2023-04-28T13:37:13.358Z,12.92
2023-04-28T13:39:41.266Z,12.86
2023-04-28T13:42:09.384Z,12.79
2023-04-28T13:44:37.466Z,12.74
2023-04-28T13:47:09.308Z,12.68
2023-04-28T13:49:39.697Z,12.61
2023-04-28T13:52:07.758Z,12.56
2023-04-28T13:54:35.638Z,12.53
2023-04-28T13:57:04.681Z,12.53
2023-04-28T13:59:34.582Z,12.56
2023-04-28T14:02:04.294Z,12.60
2023-04-28T14:04:32.428Z,12.57
2023-04-28T14:07:01.602Z,12.56
2023-04-28T14:09:29.857Z,12.61
2023-04-28T14:11:58.669Z,12.71
2023-04-28T14:14:28.568Z,12.81
2023-04-28T14:16:56.735Z,12.83
2023-04-28T14:19:29.065Z,12.83
2023-04-28T14:21:57.679Z,12.87
2023-04-28T14:24:25.606Z,12.95
2023-04-28T14:26:54.621Z,13.01
2023-04-28T14:29:25.657Z,13.04
2023-04-28T14:31:54.060Z,13.02
2023-04-28T14:34:21.960Z,13.03
2023-04-28T14:36:50.124Z,13.10
2023-04-28T14:39:20.187Z,13.16
2023-04-28T14:41:48.915Z,13.15
2023-04-28T14:44:19.371Z,13.14
2023-04-28T14:46:47.377Z,13.15
2023-04-28T14:49:16.523Z,13.14
2023-04-28T14:51:44.580Z,13.10
2023-04-28T14:54:12.470Z,13.08
2023-04-28T14:56:40.685Z,13.07
2023-04-28T14:59:08.556Z,12.99
2023-04-28T15:01:37.165Z,12.93
2023-04-28T15:04:06.104Z,12.90
2023-04-28T15:06:38.338Z,12.92
2023-04-28T15:09:08.047Z,12.94
2023-04-28T15:11:37.292Z,12.94
2023-04-28T15:14:07.809Z,12.94
2023-04-28T15:16:35.836Z,12.93
2023-04-28T15:19:04.053Z,12.87
2023-04-28T15:21:32.752Z,12.85
2023-04-28T15:24:02.081Z,12.87
2023-04-28T15:26:30.263Z,12.87
2023-04-28T15:29:02.010Z,12.83
2023-04-28T15:31:30.031Z,12.82
2023-04-28T15:33:59.430Z,12.85
2023-04-28T15:36:28.679Z,12.85
2023-04-28T15:38:57.252Z,12.84
2023-04-28T15:41:25.461Z,12.85
2023-04-28T15:43:56.118Z,12.86
2023-04-28T15:46:24.174Z,12.87
2023-04-28T15:48:55.953Z,12.89
2023-04-28T15:51:24.926Z,12.91
2023-04-28T15:53:55.420Z,12.88
2023-04-28T15:56:24.125Z,12.85
2023-04-28T15:58:53.562Z,12.82
2023-04-28T16:01:28.838Z,12.74
2023-04-28T16:03:59.570Z,12.67
2023-04-28T16:06:27.720Z,12.60
2023-04-28T16:08:57.128Z,12.57
2023-04-28T16:11:25.080Z,12.55
2023-04-28T16:13:54.269Z,12.54
2023-04-28T16:16:23.415Z,12.46
2023-04-28T16:18:51.813Z,12.35
2023-04-28T16:21:24.090Z,12.28
2023-04-28T16:23:53.630Z,12.25
2023-04-28T16:26:22.167Z,12.24
2023-04-28T16:28:52.016Z,12.21
2023-04-28T16:31:20.588Z,12.17
2023-04-28T16:33:48.481Z,12.11
2023-04-28T16:36:16.875Z,12.10
2023-04-28T16:38:46.596Z,12.01
2023-04-28T16:41:14.785Z,11.92
2023-04-28T16:43:42.729Z,11.86
2023-04-28T16:46:10.880Z,11.82
2023-04-28T16:48:40.038Z,11.73
2023-04-28T16:51:12.387Z,11.66
2023-04-28T16:53:40.217Z,11.62
2023-04-28T16:56:10.369Z,11.59
2023-04-28T16:58:40.577Z,11.52
2023-04-28T17:01:11.235Z,11.47
2023-04-28T17:03:42.041Z,11.39
2023-04-28T17:06:13.767Z,11.36
2023-04-28T17:08:44.181Z,11.33
2023-04-28T17:11:20.035Z,11.28
2023-04-28T17:13:48.171Z,11.24
2023-04-28T17:16:16.574Z,11.23
2023-04-28T17:18:46.322Z,11.22
2023-04-28T17:21:15.055Z,11.20
2023-04-28T17:23:42.951Z,11.16
2023-04-28T17:26:10.912Z,11.14
2023-04-28T17:28:44.150Z,11.13
2023-04-28T17:31:16.757Z,11.13
2023-04-28T17:33:46.496Z,11.12
2023-04-28T17:36:17.164Z,11.12
2023-04-28T17:38:46.585Z,11.08
2023-04-28T17:41:16.956Z,11.06
2023-04-28T17:43:46.017Z,11.05
2023-04-28T17:46:14.816Z,11.02
2023-04-28T17:48:43.998Z,11.01
2023-04-28T17:51:12.092Z,10.99
2023-04-28T17:53:40.543Z,10.95
2023-04-28T17:56:10.981Z,10.91
2023-04-28T17:58:39.849Z,10.87
2023-04-28T18:01:10.806Z,10.82
2023-04-28T18:03:40.176Z,10.78
2023-04-28T18:06:08.761Z,10.77
2023-04-28T18:08:38.538Z,10.72
2023-04-28T18:11:09.055Z,10.65
2023-04-28T18:13:39.790Z,10.60
2023-04-28T18:16:10.884Z,10.55
2023-04-28T18:18:39.766Z,10.50
2023-04-28T18:21:08.115Z,10.45
2023-04-28T18:23:38.751Z,10.37
2023-04-28T18:26:06.905Z,10.31
2023-04-28T18:28:34.737Z,10.25
2023-04-28T18:31:06.325Z,10.19
2023-04-28T18:33:34.357Z,10.12
2023-04-28T18:36:06.436Z,10.11
2023-04-28T18:38:36.674Z,10.07
2023-04-28T18:41:19.181Z,10.06
2023-04-28T18:43:48.062Z,9.99
2023-04-28T18:46:16.218Z,9.93
2023-04-28T18:48:49.942Z,9.88
2023-04-28T18:51:17.975Z,9.84
2023-04-28T18:53:47.840Z,9.81
2023-04-28T18:56:16.053Z,9.75
2023-04-28T18:58:47.716Z,9.68
2023-04-28T19:01:18.912Z,9.65
2023-04-28T19:03:47.189Z,9.62
2023-04-28T19:06:18.492Z,9.56
2023-04-28T19:08:49.604Z,9.49
2023-04-28T19:11:19.853Z,9.45
2023-04-28T19:13:48.532Z,9.41
2023-04-28T19:16:18.587Z,9.37
2023-04-28T19:18:47.063Z,9.35
2023-04-28T19:21:15.764Z,9.32
2023-04-28T19:23:46.251Z,9.30
2023-04-28T19:26:15.621Z,9.27
2023-04-28T19:28:43.866Z,9.26
2023-04-28T19:31:11.755Z,9.20
2023-04-28T19:33:40.616Z,9.16
2023-04-28T19:36:09.958Z,9.13
2023-04-28T19:38:40.900Z,9.09
2023-04-28T19:41:08.881Z,9.06
2023-04-28T19:43:37.793Z,9.04
2023-04-28T19:46:06.108Z,9.02
2023-04-28T19:48:33.976Z,8.98
2023-04-28T19:51:04.029Z,8.94
2023-04-28T19:53:35.439Z,8.90
2023-04-28T19:56:05.778Z,8.88
2023-04-28T19:58:33.907Z,8.83
2023-04-28T20:01:07.298Z,8.77
2023-04-28T20:03:36.216Z,8.68
2023-04-28T20:06:06.029Z,8.62
2023-04-28T20:08:35.776Z,8.57
2023-04-28T20:11:08.261Z,8.51
2023-04-28T20:13:36.778Z,8.42
2023-04-28T20:16:09.383Z,8.30
2023-04-28T20:18:37.528Z,8.19
2023-04-28T20:21:06.720Z,8.09
2023-04-28T20:23:34.920Z,7.98
2023-04-28T20:26:05.326Z,7.88
2023-04-28T20:28:33.900Z,7.81
2023-04-28T20:31:13.037Z,7.75
2023-04-28T20:33:43.148Z,7.71
2023-04-28T20:36:13.398Z,7.67
2023-04-28T20:38:43.535Z,7.63
2023-04-28T20:41:12.620Z,7.56
2023-04-28T20:43:41.977Z,7.43
2023-04-28T20:46:10.872Z,7.31
2023-04-28T20:48:40.492Z,7.22
2023-04-28T20:51:11.519Z,7.14
2023-04-28T20:53:39.808Z,7.05
2023-04-28T20:56:10.202Z,6.95
2023-04-28T20:58:38.560Z,6.89
2023-04-28T21:01:06.628Z,6.80
2023-04-28T21:03:34.720Z,6.73
2023-04-28T21:06:02.868Z,6.67
2023-04-28T21:08:33.480Z,6.62
2023-04-28T21:11:01.550Z,6.57
2023-04-28T21:13:30.365Z,6.48
2023-04-28T21:15:58.821Z,6.39
2023-04-28T21:18:29.754Z,6.32
2023-04-28T21:20:57.780Z,6.24
2023-04-28T21:23:26.666Z,6.09
2023-04-28T21:26:00.362Z,5.96
2023-04-28T21:28:29.073Z,5.88
2023-04-28T21:30:57.096Z,5.82
2023-04-28T21:33:26.142Z,5.76
2023-04-28T21:35:54.860Z,5.68
2023-04-28T21:38:26.011Z,5.63
2023-04-28T21:40:54.348Z,5.57
2023-04-28T21:43:24.257Z,5.51
2023-04-28T21:45:53.660Z,5.46
2023-04-28T21:48:21.860Z,5.36
2023-04-28T21:50:50.448Z,5.28
2023-04-28T21:53:18.481Z,5.23
2023-04-28T21:55:47.513Z,5.17
2023-04-28T21:58:16.991Z,5.12
2023-04-28T22:00:47.224Z,5.06
2023-04-28T22:03:16.031Z,4.99
2023-04-28T22:05:47.620Z,4.91
2023-04-28T22:08:17.278Z,4.84
2023-04-28T22:10:45.665Z,4.78
2023-04-28T22:13:14.289Z,4.72
2023-04-28T22:15:44.114Z,4.64
2023-04-28T22:18:16.036Z,4.52
2023-04-28T22:20:44.716Z,4.41
2023-04-28T22:23:12.528Z,4.35
2023-04-28T22:25:41.329Z,4.30
2023-04-28T22:28:09.646Z,4.25
2023-04-28T22:30:38.069Z,4.18
2023-04-28T22:33:06.205Z,4.14
2023-04-28T22:35:34.684Z,4.12
2023-04-28T22:38:03.007Z,4.09
2023-04-28T22:40:31.213Z,4.06
2023-04-28T22:43:00.404Z,4.01
2023-04-28T22:45:29.238Z,3.98
2023-04-28T22:47:57.637Z,3.94
2023-04-28T22:50:25.815Z,3.88
2023-04-28T22:52:53.620Z,3.80
2023-04-28T22:55:21.992Z,3.73
2023-04-28T22:57:51.631Z,3.69
2023-04-28T23:00:19.755Z,3.66
2023-04-28T23:02:48.895Z,3.64
2023-04-28T23:05:18.532Z,3.62
2023-04-28T23:07:48.006Z,3.60
2023-04-28T23:10:16.161Z,3.57
2023-04-28T23:12:45.015Z,3.54
2023-04-28T23:15:14.326Z,3.45
2023-04-28T23:17:42.266Z,3.34
2023-04-28T23:20:11.198Z,3.26
2023-04-28T23:22:40.568Z,3.21
2023-04-28T23:25:08.922Z,3.17
2023-04-28T23:27:37.360Z,3.13
2023-04-28T23:30:11.096Z,3.10
2023-04-28T23:32:39.693Z,3.08
2023-04-28T23:35:11.043Z,3.07
2023-04-28T23:37:39.472Z,3.07
2023-04-28T23:40:08.234Z,3.06
2023-04-28T23:42:36.544Z,3.04
2023-04-28T23:45:06.881Z,3.02
2023-04-28T23:47:34.753Z,3.01
2023-04-28T23:50:06.818Z,2.99
2023-04-28T23:52:34.647Z,3.00
2023-04-28T23:55:03.637Z,3.01
2023-04-28T23:57:32.794Z,2.99
